createdAt,value
2022-09-28T00:01:01.111Z,2.22
2022-09-28T00:03:29.193Z,1.63
2022-09-28T00:06:03.319Z,2.63
2022-09-28T00:08:32.736Z,2.05
2022-09-28T00:11:00.482Z,2.15
2022-09-28T00:13:29.686Z,2.38
2022-09-28T00:16:02.590Z,1.73
2022-09-28T00:18:30.855Z,1.52
2022-09-28T00:21:04.302Z,1.17
2022-09-28T00:23:33.870Z,1.92
2022-09-28T00:26:05.710Z,3.05
2022-09-28T00:28:33.815Z,1.92
2022-09-28T00:31:01.758Z,1.60
2022-09-28T00:33:29.722Z,1.48
2022-09-28T00:35:58.119Z,1.58
2022-09-28T00:38:28.819Z,1.90
2022-09-28T00:40:59.560Z,2.33
2022-09-28T00:43:28.055Z,1.20
2022-09-28T00:46:00.335Z,2.05
2022-09-28T00:48:33.465Z,1.83
2022-09-28T00:53:35.763Z,2.00
2022-09-28T00:56:09.181Z,1.90
2022-09-28T00:58:40.922Z,3.20
2022-09-28T01:01:09.017Z,2.40
2022-09-28T01:03:38.691Z,2.70
2022-09-28T01:06:08.656Z,3.67
2022-09-28T01:08:38.018Z,2.72
2022-09-28T01:11:07.230Z,2.90
2022-09-28T01:13:35.246Z,3.00
2022-09-28T01:16:11.577Z,3.47
2022-09-28T01:18:48.633Z,2.47
2022-09-28T01:21:20.073Z,3.55
2022-09-28T01:24:29.890Z,2.83
2022-09-28T01:27:07.090Z,3.58
2022-09-28T01:29:44.607Z,2.95
2022-09-28T01:32:19.803Z,3.15
2022-09-28T01:34:57.355Z,2.92
2022-09-28T01:37:32.076Z,3.17
2022-09-28T01:40:03.058Z,3.60
2022-09-28T01:42:35.482Z,3.38
2022-09-28T01:45:10.524Z,3.72
2022-09-28T01:47:41.000Z,3.83
2022-09-28T01:50:13.924Z,4.07
2022-09-28T01:52:50.267Z,4.20
2022-09-28T01:55:25.091Z,4.18
2022-09-28T01:58:02.053Z,4.00
2022-09-28T02:00:30.324Z,4.07
2022-09-28T02:03:04.214Z,4.35
2022-09-28T02:05:50.295Z,3.40
2022-09-28T02:08:25.427Z,4.45
2022-09-28T02:10:58.959Z,4.63
2022-09-28T02:13:32.938Z,3.45
2022-09-28T02:16:06.621Z,4.03
2022-09-28T02:18:35.194Z,3.38
2022-09-28T02:21:10.007Z,3.95
2022-09-28T02:23:40.715Z,4.15
2022-09-28T02:26:13.247Z,3.25
2022-09-28T02:28:42.839Z,3.72
2022-09-28T02:31:10.791Z,3.63
2022-09-28T02:33:43.816Z,3.35
2022-09-28T02:36:12.508Z,3.58
2022-09-28T02:38:40.562Z,4.18
2022-09-28T02:41:19.763Z,4.60
2022-09-28T02:43:58.924Z,3.55
2022-09-28T02:46:33.342Z,3.67
2022-09-28T02:49:23.322Z,4.22
2022-09-28T02:52:14.348Z,4.60
2022-09-28T02:55:05.497Z,5.63
2022-09-28T02:57:43.920Z,4.13
2022-09-28T03:00:19.022Z,4.03
2022-09-28T03:03:00.622Z,4.18
2022-09-28T03:05:37.164Z,5.00
2022-09-28T03:08:12.171Z,3.90
2022-09-28T03:10:44.311Z,5.10
2022-09-28T03:13:14.821Z,4.70
2022-09-28T03:15:48.600Z,4.75
2022-09-28T03:18:18.018Z,4.63
2022-09-28T03:20:45.780Z,4.30
2022-09-28T03:23:24.212Z,5.53
2022-09-28T03:25:52.944Z,4.90
2022-09-28T03:28:21.237Z,5.50
2022-09-28T03:30:51.081Z,4.78
2022-09-28T03:33:19.753Z,5.20
2022-09-28T03:35:48.939Z,6.15
2022-09-28T03:38:18.205Z,5.60
2022-09-28T03:40:53.862Z,6.57
2022-09-28T03:43:21.954Z,6.78
2022-09-28T03:45:55.847Z,5.80
2022-09-28T03:48:28.804Z,5.82
2022-09-28T03:51:00.639Z,6.55
2022-09-28T03:53:29.580Z,6.32
2022-09-28T03:56:03.684Z,6.43
2022-09-28T03:58:32.613Z,7.47
2022-09-28T04:01:05.186Z,6.32
2022-09-28T04:03:33.492Z,7.13
2022-09-28T04:06:02.107Z,7.15
2022-09-28T04:08:30.125Z,7.75
2022-09-28T04:10:58.768Z,7.47
2022-09-28T04:13:26.935Z,6.90
2022-09-28T04:15:56.949Z,7.03
2022-09-28T04:18:26.328Z,6.40
2022-09-28T04:21:17.353Z,7.30
2022-09-28T04:23:48.797Z,7.05
2022-09-28T04:26:18.392Z,9.73
2022-09-28T04:29:06.843Z,8.68
2022-09-28T04:31:39.949Z,8.10
2022-09-28T04:34:09.405Z,8.18
2022-09-28T04:36:37.311Z,9.32
2022-09-28T04:39:05.327Z,9.57
2022-09-28T04:41:34.027Z,8.77
2022-09-28T04:44:02.502Z,10.38
2022-09-28T04:46:30.559Z,9.70
2022-09-28T04:49:18.813Z,9.02
2022-09-28T04:51:54.558Z,9.95
2022-09-28T04:54:22.353Z,9.00
2022-09-28T04:56:51.178Z,9.25
2022-09-28T04:59:19.111Z,9.07
2022-09-28T05:01:47.529Z,8.95
2022-09-28T05:04:53.320Z,8.00
2022-09-28T05:07:47.189Z,7.40
2022-09-28T05:10:15.256Z,8.55
2022-09-28T05:12:43.154Z,8.70
2022-09-28T05:15:12.657Z,7.63
2022-09-28T05:17:40.490Z,8.05
2022-09-28T05:20:22.435Z,8.40
2022-09-28T05:22:50.366Z,8.40
2022-09-28T05:25:18.934Z,8.38
2022-09-28T05:27:56.835Z,8.07
2022-09-28T05:30:38.476Z,7.93
2022-09-28T05:33:30.267Z,8.48
2022-09-28T05:36:12.059Z,6.43
2022-09-28T05:38:39.971Z,8.18
2022-09-28T05:41:07.924Z,7.68
2022-09-28T05:43:36.360Z,6.75
2022-09-28T05:46:06.108Z,6.28
2022-09-28T05:48:36.410Z,6.30
2022-09-28T05:51:04.417Z,6.38
2022-09-28T05:53:33.628Z,6.63
2022-09-28T05:56:01.859Z,6.40
2022-09-28T05:58:32.669Z,6.15
2022-09-28T06:01:00.760Z,6.25
2022-09-28T06:03:28.697Z,6.45
2022-09-28T06:05:56.600Z,5.78
2022-09-28T06:08:25.326Z,6.68
2022-09-28T06:11:03.139Z,6.40
2022-09-28T06:13:32.200Z,6.45
2022-09-28T06:15:59.963Z,5.88
2022-09-28T06:18:28.024Z,5.70
2022-09-28T06:21:25.150Z,5.53
2022-09-28T06:23:53.014Z,5.20
2022-09-28T06:26:23.050Z,6.30
2022-09-28T06:28:51.072Z,4.93
2022-09-28T06:31:19.864Z,6.28
2022-09-28T06:33:50.785Z,5.80
2022-09-28T06:36:20.878Z,6.20
2022-09-28T06:38:50.515Z,5.85
2022-09-28T06:41:18.660Z,5.88
2022-09-28T06:43:48.821Z,4.90
2022-09-28T06:46:35.666Z,5.43
2022-09-28T06:49:16.120Z,6.63
2022-09-28T06:52:06.103Z,5.80
2022-09-28T06:54:56.725Z,5.47
2022-09-28T06:57:32.831Z,5.40
2022-09-28T07:00:05.267Z,5.28
2022-09-28T07:02:33.302Z,4.80
2022-09-28T07:05:14.674Z,4.70
2022-09-28T07:07:56.404Z,5.20
2022-09-28T07:10:50.287Z,4.50
2022-09-28T07:13:49.151Z,4.70
2022-09-28T07:16:26.554Z,5.78
2022-09-28T07:18:56.855Z,4.28
2022-09-28T07:21:29.654Z,4.65
2022-09-28T07:23:59.996Z,4.60
2022-09-28T07:26:46.534Z,4.53
2022-09-28T07:29:30.996Z,4.25
2022-09-28T07:32:20.293Z,5.00
2022-09-28T07:35:15.445Z,3.95
2022-09-28T07:37:48.475Z,4.88
2022-09-28T07:40:33.958Z,4.97
2022-09-28T07:43:05.603Z,5.32
2022-09-28T07:45:36.159Z,4.07
2022-09-28T07:48:06.020Z,4.47
2022-09-28T07:51:06.576Z,4.20
2022-09-28T07:53:48.085Z,5.03
2022-09-28T07:56:28.701Z,4.47
2022-09-28T07:59:20.268Z,4.28
2022-09-28T08:02:07.076Z,5.50
2022-09-28T08:04:36.998Z,4.55
2022-09-28T08:07:10.399Z,4.65
2022-09-28T08:09:38.510Z,4.70
2022-09-28T08:12:32.045Z,5.35
2022-09-28T08:15:20.231Z,5.38
2022-09-28T08:18:08.629Z,4.25
2022-09-28T08:20:55.142Z,3.83
2022-09-28T08:23:23.598Z,4.53
2022-09-28T08:25:53.867Z,4.47
2022-09-28T08:28:23.955Z,5.45
2022-09-28T08:30:55.292Z,4.05
2022-09-28T08:33:32.586Z,4.15
2022-09-28T08:36:36.873Z,3.22
2022-09-28T08:39:23.461Z,5.25
2022-09-28T08:42:31.755Z,5.80
2022-09-28T08:45:38.300Z,4.47
2022-09-28T08:48:56.956Z,3.80
2022-09-28T08:51:56.071Z,4.10
2022-09-28T08:54:40.283Z,3.95
2022-09-28T08:57:18.783Z,3.65
2022-09-28T08:59:52.669Z,4.72
2022-09-28T09:02:33.378Z,4.53
2022-09-28T09:05:19.066Z,3.97
2022-09-28T09:08:25.868Z,5.30
2022-09-28T09:11:01.350Z,5.93
2022-09-28T09:13:46.730Z,4.80
2022-09-28T09:16:31.634Z,4.38
2022-09-28T09:19:35.538Z,3.80
2022-09-28T09:22:27.308Z,4.68
2022-09-28T09:25:05.055Z,5.80
2022-09-28T09:27:48.210Z,4.07
2022-09-28T09:30:20.422Z,3.40
2022-09-28T09:33:07.872Z,3.28
2022-09-28T09:36:02.769Z,4.15
2022-09-28T09:38:59.259Z,4.00
2022-09-28T09:42:01.422Z,4.07
2022-09-28T09:44:52.717Z,3.60
2022-09-28T09:47:53.329Z,3.83
2022-09-28T09:50:30.087Z,3.50
2022-09-28T09:53:03.531Z,4.45
2022-09-28T09:55:35.187Z,3.53
2022-09-28T09:58:30.551Z,2.28
2022-09-28T10:01:18.541Z,2.70
2022-09-28T10:04:19.856Z,2.65
2022-09-28T10:06:50.638Z,2.00
2022-09-28T10:09:24.932Z,2.42
2022-09-28T10:11:53.899Z,1.75
2022-09-28T10:14:24.792Z,1.45
2022-09-28T10:17:06.089Z,2.05
2022-09-28T10:19:52.568Z,2.63
2022-09-28T10:22:43.475Z,1.80
2022-09-28T10:25:16.381Z,3.03
2022-09-28T10:27:46.377Z,2.70
2022-09-28T10:30:23.219Z,4.25
2022-09-28T10:32:53.628Z,2.97
2022-09-28T10:35:25.061Z,1.95
2022-09-28T10:38:04.400Z,1.90
2022-09-28T10:40:47.569Z,1.65
2022-09-28T10:43:25.028Z,2.80
2022-09-28T10:46:07.383Z,1.65
2022-09-28T10:48:49.580Z,1.58
2022-09-28T10:51:17.599Z,2.30
2022-09-28T10:54:00.740Z,1.42
2022-09-28T10:56:50.431Z,2.03
2022-09-28T10:59:39.448Z,1.92
2022-09-28T11:02:36.179Z,2.38
2022-09-28T11:05:27.799Z,2.72
2022-09-28T11:08:00.672Z,1.55
2022-09-28T11:10:35.639Z,3.30
2022-09-28T11:13:15.381Z,1.58
2022-09-28T11:15:50.195Z,3.33
2022-09-28T11:18:32.531Z,2.30
2022-09-28T11:21:15.989Z,1.98
2022-09-28T11:24:08.537Z,1.58
2022-09-28T11:26:43.906Z,2.45
2022-09-28T11:29:27.829Z,1.52
2022-09-28T11:32:16.080Z,2.20
2022-09-28T11:35:24.597Z,2.42
2022-09-28T11:38:23.480Z,1.50
2022-09-28T11:41:37.537Z,1.85
2022-09-28T11:44:22.395Z,1.80
2022-09-28T11:47:13.089Z,3.28
2022-09-28T11:49:46.410Z,2.65
2022-09-28T11:52:23.549Z,2.63
2022-09-28T11:54:56.005Z,2.50
2022-09-28T11:57:29.575Z,2.35
2022-09-28T12:00:01.590Z,2.60
2022-09-28T12:02:36.931Z,2.60
2022-09-28T12:05:21.025Z,2.40
2022-09-28T12:07:55.512Z,2.03
2022-09-28T12:10:48.111Z,2.08
2022-09-28T12:13:22.760Z,1.92
2022-09-28T12:21:33.019Z,1.90
2022-09-28T12:24:08.643Z,1.67
2022-09-28T12:26:43.336Z,2.00
2022-09-28T12:29:15.189Z,1.58
2022-09-28T12:31:57.984Z,2.15
2022-09-28T12:34:26.308Z,2.05
2022-09-28T12:37:09.335Z,2.55
2022-09-28T12:42:44.088Z,1.48
2022-09-28T12:45:38.749Z,2.72
2022-09-28T12:48:29.280Z,1.55
2022-09-28T12:51:09.758Z,1.23
2022-09-28T12:53:59.204Z,1.90
2022-09-28T12:56:35.781Z,1.92
2022-09-28T12:59:16.574Z,1.83
2022-09-28T13:02:02.456Z,1.77
2022-09-28T13:04:55.010Z,2.45
2022-09-28T13:07:29.165Z,1.52
2022-09-28T13:10:11.064Z,1.48
2022-09-28T13:12:54.628Z,1.58
2022-09-28T13:15:35.695Z,1.70
2022-09-28T13:18:12.251Z,2.00
2022-09-28T13:20:58.948Z,1.50
2022-09-28T13:23:32.073Z,1.42
2022-09-28T13:26:09.796Z,2.00
2022-09-28T13:28:40.885Z,1.13
2022-09-28T13:31:10.439Z,1.90
2022-09-28T13:33:41.148Z,1.88
2022-09-28T13:36:47.185Z,2.13
2022-09-28T13:39:39.350Z,1.88
2022-09-28T13:42:10.468Z,1.88
2022-09-28T13:45:15.719Z,2.25
2022-09-28T13:47:56.348Z,1.35
2022-09-28T13:50:34.306Z,2.67
2022-09-28T13:53:12.877Z,2.47
2022-09-28T13:55:54.931Z,3.28
2022-09-28T13:58:28.503Z,1.90
2022-09-28T14:01:04.364Z,3.35
2022-09-28T14:03:53.731Z,3.10
2022-09-28T14:06:27.545Z,1.88
2022-09-28T14:09:40.900Z,2.58
2022-09-28T14:12:47.304Z,2.47
2022-09-28T14:15:41.675Z,1.85
2022-09-28T14:18:24.537Z,3.22
2022-09-28T14:21:05.173Z,1.30
2022-09-28T14:24:00.069Z,2.35
2022-09-28T14:27:13.360Z,1.10
2022-09-28T14:29:42.541Z,2.42
2022-09-28T14:32:24.454Z,1.20
2022-09-28T14:35:04.530Z,0.60
2022-09-28T14:37:52.983Z,1.23
2022-09-28T14:40:40.608Z,1.40
2022-09-28T14:43:26.171Z,1.75
2022-09-28T14:46:33.195Z,1.42
2022-09-28T14:49:04.506Z,0.82
2022-09-28T14:52:04.212Z,1.65
2022-09-28T14:54:46.317Z,2.22
2022-09-28T14:57:19.367Z,1.40
2022-09-28T14:59:48.132Z,1.05
2022-09-28T15:02:21.527Z,0.75
2022-09-28T15:04:53.498Z,0.77
2022-09-28T15:07:25.520Z,1.48
2022-09-28T15:09:55.029Z,1.08
2022-09-28T15:12:27.493Z,0.85
2022-09-28T15:14:58.376Z,1.52
2022-09-28T15:17:29.721Z,0.73
2022-09-28T15:21:00.130Z,0.90
2022-09-28T15:24:03.508Z,0.70
2022-09-28T15:26:54.354Z,0.68
2022-09-28T15:29:26.307Z,0.80
2022-09-28T15:31:54.815Z,0.95
2022-09-28T15:34:49.371Z,1.20
2022-09-28T15:37:22.021Z,0.77
2022-09-28T15:39:51.526Z,1.27
2022-09-28T15:42:21.178Z,1.13
2022-09-28T15:45:04.414Z,2.05
2022-09-28T15:47:32.959Z,1.05
2022-09-28T15:50:02.783Z,1.30
2022-09-28T15:52:40.666Z,2.00
2022-09-28T15:55:21.827Z,2.28
2022-09-28T15:57:51.940Z,1.42
2022-09-28T16:00:28.798Z,1.23
2022-09-28T16:03:03.764Z,1.98
2022-09-28T16:05:35.806Z,2.05
2022-09-28T16:08:05.990Z,0.53
2022-09-28T16:10:35.943Z,1.70
2022-09-28T16:13:17.145Z,2.08
2022-09-28T16:15:45.720Z,1.38
2022-09-28T16:18:20.527Z,1.73
2022-09-28T16:20:50.997Z,2.08
2022-09-28T16:23:24.086Z,0.88
2022-09-28T16:25:55.624Z,2.03
2022-09-28T16:28:51.691Z,1.08
2022-09-28T16:31:37.839Z,1.33
2022-09-28T16:34:17.535Z,2.03
2022-09-28T16:36:47.449Z,1.73
2022-09-28T16:39:16.751Z,1.73
2022-09-28T16:41:47.853Z,3.63
2022-09-28T16:44:23.339Z,2.60
2022-09-28T16:46:55.159Z,1.77
2022-09-28T16:49:25.421Z,2.08
2022-09-28T16:51:53.333Z,2.28
2022-09-28T16:54:40.587Z,2.15
2022-09-28T16:57:12.278Z,1.73
2022-09-28T16:59:41.515Z,2.53
2022-09-28T17:02:42.213Z,2.53
2022-09-28T17:05:07.423Z,2.63
2022-09-28T17:07:35.568Z,2.67
2022-09-28T17:10:03.551Z,2.00
2022-09-28T17:12:31.356Z,2.67
2022-09-28T17:15:00.921Z,2.35
2022-09-28T17:17:31.545Z,2.38
2022-09-28T17:19:59.564Z,2.67
2022-09-28T17:22:27.459Z,2.15
2022-09-28T17:24:55.360Z,2.17
2022-09-28T17:27:23.155Z,1.88
2022-09-28T17:29:51.416Z,2.00
2022-09-28T17:32:20.844Z,2.42
2022-09-28T17:35:00.884Z,2.33
2022-09-28T17:37:36.245Z,2.47
2022-09-28T17:40:08.500Z,2.25
2022-09-28T17:42:36.269Z,2.53
2022-09-28T17:45:04.163Z,2.40
2022-09-28T17:47:34.437Z,3.10
2022-09-28T17:50:02.470Z,2.88
2022-09-28T17:52:30.209Z,2.58
2022-09-28T17:54:57.984Z,3.30
2022-09-28T17:57:25.852Z,2.92
2022-09-28T17:59:53.854Z,3.50
2022-09-28T18:02:21.642Z,3.15
2022-09-28T18:04:52.463Z,3.10
2022-09-28T18:07:23.396Z,3.20
2022-09-28T18:09:57.835Z,2.70
2022-09-28T18:12:26.096Z,5.07
2022-09-28T18:14:54.365Z,4.15
2022-09-28T18:17:22.273Z,3.65
2022-09-28T18:19:51.534Z,3.63
2022-09-28T18:22:19.513Z,4.05
2022-09-28T18:24:49.709Z,4.25
2022-09-28T18:27:17.664Z,4.03
2022-09-28T18:29:45.709Z,4.55
2022-09-28T18:32:13.577Z,5.07
2022-09-28T18:34:41.715Z,6.35
2022-09-28T18:37:11.076Z,4.50
2022-09-28T18:39:38.892Z,4.88
2022-09-28T18:42:07.817Z,5.38
2022-09-28T18:44:37.890Z,5.68
2022-09-28T18:47:06.141Z,5.57
2022-09-28T18:49:34.456Z,3.83
2022-09-28T18:52:03.030Z,4.82
2022-09-28T18:54:33.687Z,4.55
2022-09-28T18:57:01.548Z,4.10
2022-09-28T18:59:29.801Z,4.43
2022-09-28T19:01:57.841Z,4.00
2022-09-28T19:04:25.814Z,5.10
2022-09-28T19:06:54.400Z,4.63
2022-09-28T19:09:26.764Z,4.43
2022-09-28T19:11:56.036Z,3.72
2022-09-28T19:14:23.822Z,5.30
2022-09-28T19:16:51.729Z,4.03
2022-09-28T19:19:21.263Z,5.40
2022-09-28T19:21:49.421Z,4.32
2022-09-28T19:24:19.600Z,5.65
2022-09-28T19:26:47.855Z,6.30
2022-09-28T19:29:17.456Z,5.97
2022-09-28T19:31:46.007Z,6.60
2022-09-28T19:34:14.561Z,7.15
2022-09-28T19:36:42.809Z,7.53
2022-09-28T19:39:15.094Z,5.90
2022-09-28T19:41:49.216Z,6.25
2022-09-28T19:44:24.460Z,4.78
2022-09-28T19:46:54.604Z,5.38
2022-09-28T19:49:23.758Z,5.22
2022-09-28T19:52:12.033Z,5.28
2022-09-28T19:54:43.724Z,5.32
2022-09-28T19:57:12.584Z,4.57
2022-09-28T19:59:42.086Z,4.53
2022-09-28T20:02:11.490Z,4.90
2022-09-28T20:04:39.437Z,5.93
2022-09-28T20:07:07.369Z,6.68
2022-09-28T20:09:35.167Z,4.32
2022-09-28T20:12:03.154Z,4.60
2022-09-28T20:14:35.257Z,4.97
2022-09-28T20:17:07.451Z,5.47
2022-09-28T20:19:35.366Z,4.78
2022-09-28T20:22:03.532Z,4.97
2022-09-28T20:24:31.719Z,5.30
2022-09-28T20:27:01.150Z,5.68
2022-09-28T20:29:29.210Z,5.50
2022-09-28T20:31:57.715Z,4.47
2022-09-28T20:34:26.904Z,4.50
2022-09-28T20:36:54.741Z,5.22
2022-09-28T20:39:22.497Z,5.40
2022-09-28T20:41:50.297Z,5.85
2022-09-28T20:44:18.217Z,5.40
2022-09-28T20:46:46.246Z,6.43
2022-09-28T20:49:14.104Z,5.22
2022-09-28T20:51:45.870Z,5.35
2022-09-28T20:54:13.743Z,5.88
2022-09-28T20:56:41.478Z,5.15
2022-09-28T20:59:12.213Z,7.50
2022-09-28T21:01:41.376Z,5.80
2022-09-28T21:04:10.948Z,5.07
2022-09-28T21:06:41.930Z,6.13
2022-09-28T21:09:12.678Z,6.00
2022-09-28T21:11:41.651Z,5.70
2022-09-28T21:14:10.950Z,7.13
2022-09-28T21:16:39.253Z,5.90
2022-09-28T21:19:07.340Z,7.25
2022-09-28T21:21:35.581Z,6.07
2022-09-28T21:24:03.467Z,6.10
2022-09-28T21:26:33.193Z,5.78
2022-09-28T21:29:02.645Z,6.50
2022-09-28T21:31:32.704Z,5.65
2022-09-28T21:34:00.845Z,6.57
2022-09-28T21:36:28.663Z,7.50
2022-09-28T21:38:56.515Z,6.03
2022-09-28T21:41:24.758Z,6.57
2022-09-28T21:43:53.902Z,5.50
2022-09-28T21:46:21.838Z,6.88
2022-09-28T21:48:53.653Z,7.78
2022-09-28T21:51:21.996Z,7.28
2022-09-28T21:53:52.437Z,7.10
2022-09-28T21:56:20.236Z,7.88
2022-09-28T21:58:48.209Z,7.47
2022-09-28T22:01:19.646Z,9.00
2022-09-28T22:03:49.386Z,8.68
2022-09-28T22:06:18.842Z,7.93
2022-09-28T22:08:47.460Z,8.02
2022-09-28T22:11:17.885Z,7.95
2022-09-28T22:13:47.577Z,7.97
2022-09-28T22:16:18.559Z,9.82
2022-09-28T22:18:49.960Z,9.98
2022-09-28T22:21:20.015Z,8.90
2022-09-28T22:23:48.411Z,8.50
2022-09-28T22:26:19.037Z,9.18
2022-09-28T22:28:49.409Z,8.10
2022-09-28T22:31:20.323Z,7.68
2022-09-28T22:33:48.298Z,9.35
2022-09-28T22:36:17.033Z,7.80
2022-09-28T22:38:45.735Z,7.78
2022-09-28T22:41:15.837Z,6.35
2022-09-28T22:43:44.125Z,6.00
2022-09-28T22:46:13.525Z,7.22
2022-09-28T22:48:43.292Z,7.57
2022-09-28T22:51:11.081Z,6.70
2022-09-28T22:53:38.925Z,7.03
2022-09-28T22:56:07.646Z,5.97
2022-09-28T22:58:36.311Z,6.45
2022-09-28T23:01:08.549Z,5.47
2022-09-28T23:03:36.942Z,5.72
2022-09-28T23:06:06.835Z,5.75
2022-09-28T23:08:35.163Z,6.32
2022-09-28T23:11:03.487Z,5.38
2022-09-28T23:13:31.399Z,6.40
2022-09-28T23:16:01.649Z,5.85
2022-09-28T23:18:31.344Z,5.25
2022-09-28T23:21:00.920Z,7.00
2022-09-28T23:23:30.837Z,8.70
2022-09-28T23:25:58.818Z,5.95
2022-09-28T23:28:28.028Z,6.70
2022-09-28T23:30:55.841Z,5.38
2022-09-28T23:33:23.690Z,6.07
2022-09-28T23:35:51.685Z,6.40
2022-09-28T23:38:19.471Z,5.97
2022-09-28T23:40:49.005Z,6.22
2022-09-28T23:43:16.817Z,6.28
2022-09-28T23:45:45.524Z,6.28
2022-09-28T23:48:14.887Z,6.35
2022-09-28T23:50:43.085Z,6.47
2022-09-28T23:53:10.922Z,5.72
2022-09-28T23:55:38.761Z,5.57
2022-09-28T23:58:07.886Z,7.22
